Time;durP1;ratioP1;P1;durP2;ratioP2;P2;SDS_P1;SDS_P2;PMS_P1;PMS_P2;Temp;Humidity;BMP_temperature;BMP_pressure;BME280_temperature;BME280_humidity;BME280_pressure;Samples;Min_cycle;Max_cycle;Signal;HPM_P1;HPM_P2
2022/07/15 00:00:29;;;;;;;3.38;0.80;;;;;;;14.48;54.93;101163.63;7395696;19;20070;-67
2022/07/15 00:02:57;;;;;;;1.30;0.70;;;;;;;14.44;54.66;101167.25;7398206;19;20463;-67
2022/07/15 00:05:26;;;;;;;1.42;0.80;;;;;;;14.38;54.89;101166.56;7395644;19;20022;-67
2022/07/15 00:07:58;;;;;;;2.08;0.50;;;;;;;14.33;55.23;101166.72;7396997;19;20029;-67
2022/07/15 00:10:27;;;;;;;1.90;1.02;;;;;;;14.28;55.35;101171.25;7396365;19;20018;-67
2022/07/15 00:12:58;;;;;;;1.73;0.70;;;;;;;14.23;55.54;101165.25;7396005;19;20018;-67
2022/07/15 00:15:31;;;;;;;4.43;1.02;;;;;;;14.17;56.44;101172.47;7394338;19;20035;-67
2022/07/15 00:18:01;;;;;;;1.38;0.50;;;;;;;14.16;55.70;101175.16;7395036;19;20481;-67
2022/07/15 00:20:33;;;;;;;1.95;0.90;;;;;;;14.10;56.15;101175.31;7395905;19;20019;-67
2022/07/15 00:23:03;;;;;;;4.13;0.98;;;;;;;14.07;56.17;101178.94;7396532;19;20040;-67
2022/07/15 00:25:32;;;;;;;0.93;0.60;;;;;;;14.04;56.25;101179.03;7396976;19;20026;-67
2022/07/15 00:28:02;;;;;;;2.53;0.80;;;;;;;14.01;56.34;101179.97;7395074;19;20011;-67
2022/07/15 00:30:35;;;;;;;3.03;0.90;;;;;;;13.99;56.73;101178.31;7394917;19;20022;-67
2022/07/15 00:33:05;;;;;;;2.50;0.60;;;;;;;13.95;56.64;101184.56;7396985;19;20085;-67
2022/07/15 00:35:35;;;;;;;3.28;0.68;;;;;;;13.92;56.75;101182.00;7395147;19;20073;-67
2022/07/15 00:38:04;;;;;;;4.70;1.00;;;;;;;13.88;57.13;101181.22;7396442;19;20078;-67
2022/07/15 00:40:33;;;;;;;3.25;0.82;;;;;;;13.84;57.27;101182.25;7394607;19;20035;-67
2022/07/15 00:43:01;;;;;;;1.85;0.90;;;;;;;13.79;57.56;101187.63;7396188;19;20094;-67
2022/07/15 00:45:32;;;;;;;2.72;0.98;;;;;;;13.75;57.87;101190.38;7395979;19;20035;-67
2022/07/15 00:48:01;;;;;;;2.78;1.00;;;;;;;13.70;58.29;101185.25;7396044;19;20506;-67
2022/07/15 00:50:31;;;;;;;2.60;0.70;;;;;;;13.63;58.60;101188.97;7394701;19;20019;-67
2022/07/15 00:53:07;;;;;;;2.60;0.68;;;;;;;13.59;59.66;101184.69;7395742;19;20085;-67
2022/07/15 00:55:40;;;;;;;2.72;0.95;;;;;;;13.54;59.06;101189.22;7394464;19;20022;-67
2022/07/15 00:58:10;;;;;;;1.27;0.85;;;;;;;13.48;59.48;101187.59;7395451;19;20011;-67
2022/07/15 01:00:42;;;;;;;1.58;0.82;;;;;;;13.46;59.77;101190.28;7394240;19;20027;-67
2022/07/15 01:03:12;;;;;;;2.45;0.80;;;;;;;13.42;59.42;101183.38;7396122;19;20021;-67
2022/07/15 01:05:40;;;;;;;2.38;1.00;;;;;;;13.40;59.84;101190.44;7395235;19;20541;-67
2022/07/15 01:08:10;;;;;;;1.63;1.08;;;;;;;13.36;59.75;101184.34;7393859;19;20035;-67
2022/07/15 01:10:39;;;;;;;4.35;0.93;;;;;;;13.33;60.03;101188.84;7393799;19;20067;-67
2022/07/15 01:13:07;;;;;;;4.55;1.10;;;;;;;13.27;60.30;101183.72;7395421;19;20478;-67
2022/07/15 01:15:36;;;;;;;5.32;1.10;;;;;;;13.20;60.54;101176.00;7395075;19;20026;-68
2022/07/15 01:18:07;;;;;;;1.90;1.10;;;;;;;13.22;61.36;101185.63;7394672;19;20024;-68
2022/07/15 01:20:36;;;;;;;3.50;1.02;;;;;;;13.17;61.06;101186.59;7395352;19;20035;-67
2022/07/15 01:23:07;;;;;;;2.00;1.02;;;;;;;13.14;62.11;101186.69;7395159;19;20028;-67
2022/07/15 01:25:36;;;;;;;3.50;1.25;;;;;;;13.11;61.46;101189.41;7395616;19;20090;-67
2022/07/15 01:28:04;;;;;;;2.15;1.10;;;;;;;13.09;62.42;101190.34;7399630;19;20019;-67
2022/07/15 01:30:33;;;;;;;4.97;1.50;;;;;;;13.07;62.14;101197.41;7400128;19;20094;-67
2022/07/15 01:33:01;;;;;;;4.57;1.30;;;;;;;13.04;61.94;101199.22;7402461;19;20015;-67
2022/07/15 01:35:30;;;;;;;3.97;1.17;;;;;;;13.00;62.40;101205.47;7399346;19;20082;-66
2022/07/15 01:37:59;;;;;;;2.55;1.05;;;;;;;12.98;62.63;101194.09;7402114;19;20070;-67
2022/07/15 01:40:30;;;;;;;2.45;1.40;;;;;;;12.95;62.98;101196.78;7399955;19;20477;-68
2022/07/15 01:42:59;;;;;;;2.65;1.35;;;;;;;12.92;63.04;101203.94;7401630;19;20509;-67
2022/07/15 01:45:28;;;;;;;2.08;1.27;;;;;;;12.88;63.27;101213.66;7401968;19;20055;-67
2022/07/15 01:47:57;;;;;;;3.63;1.73;;;;;;;12.84;63.55;101210.25;7399265;19;20036;-67
2022/07/15 01:50:23;;;;;;;3.47;1.58;;;;;;;12.80;63.62;101212.97;7399698;19;20027;-67
2022/07/15 01:52:52;;;;;;;1.50;1.10;;;;;;;12.76;64.41;101209.53;7401426;19;20583;-67
2022/07/15 01:55:20;;;;;;;3.33;1.05;;;;;;;12.72;64.42;101210.53;7398821;19;20019;-67
2022/07/15 01:57:58;;;;;;;5.93;1.27;;;;;;;12.66;66.14;101206.28;7401636;19;20098;-67
2022/07/15 02:00:27;;;;;;;2.42;1.48;;;;;;;12.62;65.07;101204.59;7400779;19;20018;-68
2022/07/15 02:02:55;;;;;;;4.85;1.40;;;;;;;12.59;65.48;101209.09;7398669;19;20026;-67
2022/07/15 02:05:24;;;;;;;3.33;1.40;;;;;;;12.55;65.43;101213.56;7401394;19;20039;-68
2022/07/15 02:07:52;;;;;;;1.75;1.33;;;;;;;12.50;65.75;101211.00;7401215;19;20029;-67
2022/07/15 02:10:21;;;;;;;4.13;1.55;;;;;;;12.47;65.93;101215.47;7398218;19;20031;-67
2022/07/15 02:12:56;;;;;;;5.50;2.35;;;;;;;12.42;66.16;101210.31;7398639;19;20410;-67
2022/07/15 02:15:27;;;;;;;5.78;1.35;;;;;;;12.41;67.21;101205.09;7398416;19;20430;-67
2022/07/15 02:17:55;;;;;;;2.97;1.40;;;;;;;12.38;66.61;101219.19;7402161;19;20035;-68
2022/07/15 02:20:24;;;;;;;6.28;1.30;;;;;;;12.36;66.48;101216.59;7400793;19;20014;-68
2022/07/15 02:22:52;;;;;;;4.68;1.48;;;;;;;12.34;66.79;101212.25;7398543;19;20018;-67
2022/07/15 02:25:21;;;;;;;4.28;1.58;;;;;;;12.32;67.05;101217.56;7401648;19;20082;-69
2022/07/15 02:27:52;;;;;;;4.03;1.20;;;;;;;12.30;67.20;101223.75;7398439;19;20081;-68
2022/07/15 02:30:20;;;;;;;2.67;1.42;;;;;;;12.28;67.15;101222.91;7399052;19;20019;-67
2022/07/15 02:32:51;;;;;;;3.17;1.60;;;;;;;12.25;67.17;101221.22;7399593;19;20018;-67
2022/07/15 02:35:20;;;;;;;5.68;1.73;;;;;;;12.22;67.33;101224.78;7399904;19;20040;-67
2022/07/15 02:37:49;;;;;;;3.42;1.27;;;;;;;12.19;67.62;101218.69;7395775;19;20031;-67
2022/07/15 02:40:17;;;;;;;6.05;1.40;;;;;;;12.16;67.45;101219.63;7398755;19;20023;-68
2022/07/15 02:42:51;;;;;;;4.22;1.35;;;;;;;12.13;68.28;101217.09;7397771;19;20022;-67
2022/07/15 02:45:20;;;;;;;4.38;1.40;;;;;;;12.11;67.62;101225.91;7399828;19;20507;-68
2022/07/15 02:47:51;;;;;;;3.53;1.42;;;;;;;12.10;67.86;101225.00;7397263;19;20477;-68
2022/07/15 02:50:20;;;;;;;4.07;1.58;;;;;;;12.09;67.88;101232.94;7397876;19;20018;-67
2022/07/15 02:52:49;;;;;;;4.55;1.98;;;;;;;12.06;68.03;101233.88;7399892;19;20384;-68
2022/07/15 02:55:19;;;;;;;2.00;1.23;;;;;;;12.03;68.26;101241.81;7399613;19;20022;-68
2022/07/15 02:57:48;;;;;;;3.08;1.35;;;;;;;12.01;68.59;101241.84;7396727;19;20024;-67
2022/07/15 03:00:20;;;;;;;4.95;1.70;;;;;;;11.98;68.77;101239.28;7398217;19;20078;-67
2022/07/15 03:02:52;;;;;;;3.10;1.42;;;;;;;11.98;68.98;101238.41;7397608;19;20015;-67
2022/07/15 03:05:21;;;;;;;3.28;1.52;;;;;;;11.96;68.82;101242.84;7396640;19;20031;-68
2022/07/15 03:07:49;;;;;;;3.30;1.70;;;;;;;11.92;69.40;101246.38;7396587;19;20475;-67
2022/07/15 03:10:18;;;;;;;4.90;1.30;;;;;;;11.88;69.37;101250.84;7396630;19;20514;-67
2022/07/15 03:12:46;;;;;;;7.90;1.98;;;;;;;11.86;69.08;101247.38;7396198;19;20010;-68
2022/07/15 03:15:15;;;;;;;5.75;1.48;;;;;;;11.84;69.24;101247.41;7396809;19;20032;-67
2022/07/15 03:17:43;;;;;;;3.40;1.52;;;;;;;11.83;69.37;101247.44;7399044;19;20089;-68
2022/07/15 03:20:15;;;;;;;5.40;1.70;;;;;;;11.77;69.54;101247.56;7396706;19;20039;-67
2022/07/15 03:22:43;;;;;;;2.67;1.40;;;;;;;11.78;69.79;101250.16;7396639;19;20196;-67
2022/07/15 03:25:12;;;;;;;7.90;1.90;;;;;;;11.76;70.00;101262.44;7396734;19;20077;-68
2022/07/15 03:27:40;;;;;;;4.80;1.70;;;;;;;11.73;70.04;101252.84;7398739;19;20083;-67
2022/07/15 03:30:10;;;;;;;7.60;1.80;;;;;;;11.72;70.23;101268.66;7396096;19;20022;-68
2022/07/15 03:32:38;;;;;;;6.35;2.03;;;;;;;11.70;70.32;101262.56;7397984;19;20379;-68
2022/07/15 03:35:08;;;;;;;5.88;1.70;;;;;;;11.68;70.33;101265.22;7398727;19;20031;-67
2022/07/15 03:37:39;;;;;;;4.70;1.70;;;;;;;11.66;70.70;101264.38;7395879;19;20035;-68
2022/07/15 03:40:09;;;;;;;8.43;2.80;;;;;;;11.65;70.48;101265.28;7396103;19;20086;-67
2022/07/15 03:42:37;;;;;;;3.30;1.77;;;;;;;11.65;70.71;101265.28;7397375;19;20604;-67
2022/07/15 03:45:06;;;;;;;5.72;1.95;;;;;;;11.64;70.80;101268.81;7395612;19;20509;-67
2022/07/15 03:47:35;;;;;;;4.50;1.65;;;;;;;11.64;70.71;101266.19;7395853;19;20029;-67
2022/07/15 03:50:03;;;;;;;4.93;1.58;;;;;;;11.63;71.01;101268.84;7392736;19;20035;-67
2022/07/15 03:52:32;;;;;;;5.88;1.67;;;;;;;11.62;71.34;101275.00;7395672;19;20104;-67
2022/07/15 03:55:03;;;;;;;5.68;1.95;;;;;;;11.61;71.47;101278.50;7397572;19;20022;-67
2022/07/15 03:57:32;;;;;;;4.82;1.92;;;;;;;11.61;71.42;101286.38;7395504;19;20074;-67
2022/07/15 04:00:00;;;;;;;6.22;1.77;;;;;;;11.61;71.75;101286.38;7395979;19;20035;-67
2022/07/15 04:02:29;;;;;;;5.78;1.80;;;;;;;11.61;71.91;101287.25;7397389;19;20010;-67
2022/07/15 04:04:58;;;;;;;3.88;1.60;;;;;;;11.59;72.06;101281.16;7395649;19;20082;-67
2022/07/15 04:07:26;;;;;;;4.43;1.63;;;;;;;11.61;72.23;101291.63;7396777;19;20014;-67
2022/07/15 04:09:55;;;;;;;6.28;2.45;;;;;;;11.61;72.20;101292.50;7396014;19;20026;-67
2022/07/15 04:12:26;;;;;;;6.25;1.90;;;;;;;11.63;72.57;101284.59;7394513;19;20364;-67
2022/07/15 04:14:55;;;;;;;9.27;1.90;;;;;;;11.63;72.41;101287.25;7396940;19;20375;-67
2022/07/15 04:17:23;;;;;;;6.40;1.60;;;;;;;11.65;72.43;101295.94;7395023;19;20487;-67
2022/07/15 04:19:52;;;;;;;5.07;1.65;;;;;;;11.66;72.56;101287.16;7394606;19;20021;-67
2022/07/15 04:22:20;;;;;;;8.20;1.73;;;;;;;11.69;72.66;101293.25;7396098;19;20492;-67
2022/07/15 04:24:49;;;;;;;5.05;2.15;;;;;;;11.71;72.43;101298.47;7394495;19;20010;-67
2022/07/15 04:27:18;;;;;;;8.85;1.73;;;;;;;11.73;72.77;101294.91;7396079;19;20021;-67
2022/07/15 04:29:49;;;;;;;6.57;2.08;;;;;;;11.76;72.96;101299.25;7395722;19;20019;-67
2022/07/15 04:32:17;;;;;;;8.57;1.85;;;;;;;11.79;72.63;101298.31;7393913;19;20489;-67
2022/07/15 04:34:46;;;;;;;9.80;2.63;;;;;;;11.82;72.63;101301.78;7394273;19;20011;-67
2022/07/15 04:37:14;;;;;;;8.68;2.08;;;;;;;11.85;73.02;101295.59;7393899;19;20014;-67
2022/07/15 04:39:43;;;;;;;6.88;1.80;;;;;;;11.88;72.57;101303.44;7394300;19;20040;-67
2022/07/15 04:42:11;;;;;;;5.95;1.50;;;;;;;11.91;72.76;101303.38;7393561;19;20023;-67
2022/07/15 04:44:40;;;;;;;6.07;1.88;;;;;;;11.96;72.49;101305.97;7393195;19;20484;-67
2022/07/15 04:47:11;;;;;;;10.90;1.58;;;;;;;12.00;72.50;101305.00;7395353;19;20014;-67
2022/07/15 04:52:21;;;;;;;6.30;1.60;;;;;;;12.10;72.25;101303.91;7395579;19;20010;-68
2022/07/15 04:54:49;;;;;;;8.73;1.98;;;;;;;12.14;72.17;101299.47;7394019;19;20023;-67
2022/07/15 04:57:18;;;;;;;4.40;1.73;;;;;;;12.19;72.45;101305.50;7394990;19;20073;-67
2022/07/15 04:59:46;;;;;;;7.60;1.70;;;;;;;12.24;72.01;101310.69;7393534;19;20018;-67
2022/07/15 05:02:17;;;;;;;5.57;1.45;;;;;;;12.29;72.27;101312.31;7393604;19;20039;-67
2022/07/15 05:04:46;;;;;;;8.80;1.77;;;;;;;12.35;71.88;101316.59;7393795;19;20039;-66
2022/07/15 05:07:15;;;;;;;6.10;1.35;;;;;;;12.40;71.84;101317.38;7394369;19;20014;-68
2022/07/15 05:09:43;;;;;;;10.38;1.90;;;;;;;12.45;71.25;101315.53;7394209;19;20031;-66
2022/07/15 05:12:47;;;;;;;5.82;1.63;;;;;;;12.54;71.46;101309.19;7393384;19;20484;-67
2022/07/15 05:15:15;;;;;;;9.63;1.45;;;;;;;12.60;70.73;101316.09;7395508;19;20040;-67
2022/07/15 05:17:47;;;;;;;7.20;1.60;;;;;;;12.68;70.82;101322.06;7392949;19;20082;-67
2022/07/15 05:20:15;;;;;;;5.10;1.27;;;;;;;12.73;70.44;101317.56;7393957;19;20031;-67
2022/07/15 05:22:44;;;;;;;9.02;1.42;;;;;;;12.79;70.61;101327.97;7396394;19;20485;-69
2022/07/15 05:25:12;;;;;;;9.10;1.50;;;;;;;12.85;70.10;101319.94;7394835;19;20015;-67
2022/07/15 05:27:41;;;;;;;7.70;1.40;;;;;;;12.92;70.02;101336.47;7394932;19;20383;-67
2022/07/15 05:30:12;;;;;;;9.10;1.65;;;;;;;12.99;69.63;101331.91;7393481;19;20541;-67
2022/07/15 05:32:41;;;;;;;9.95;1.20;;;;;;;13.05;69.45;101331.78;7394379;19;20082;-67
2022/07/15 05:35:15;;;;;;;6.82;1.50;;;;;;;13.10;69.35;101324.63;7391941;19;20528;-67
2022/07/15 05:37:43;;;;;;;;;;;;;;;13.17;69.64;101326.25;7393359;19;20039;-67
2022/07/15 05:40:15;;;;;;;7.75;1.50;;;;;;;13.24;69.04;101341.91;7392281;19;19918;-67
2022/07/15 05:42:43;;;;;;;6.88;1.45;;;;;;;13.30;68.78;101320.69;7393981;19;20489;-68
2022/07/15 05:45:13;;;;;;;7.97;1.52;;;;;;;13.37;68.39;101330.22;7394139;19;20350;-67
2022/07/15 05:47:42;;;;;;;10.73;1.20;;;;;;;13.43;68.19;101327.41;7392520;19;20018;-67
2022/07/15 05:50:13;;;;;;;6.20;1.50;;;;;;;13.49;68.03;101332.53;7393115;19;20022;-68
2022/07/15 05:52:41;;;;;;;4.68;1.33;;;;;;;13.54;67.61;101336.84;7391836;19;20011;-68
2022/07/15 05:55:10;;;;;;;6.38;1.17;;;;;;;13.59;67.67;101341.09;7391250;19;20078;-67
2022/07/15 05:57:39;;;;;;;8.95;1.35;;;;;;;13.64;67.42;101338.34;7392172;19;20078;-67
2022/07/15 06:00:09;;;;;;;6.80;1.35;;;;;;;13.69;66.94;101344.38;7391511;19;20027;-67
2022/07/15 06:02:39;;;;;;;7.00;1.40;;;;;;;13.74;66.62;101337.22;7391356;19;20018;-67
2022/07/15 06:05:08;;;;;;;10.75;1.48;;;;;;;13.82;66.50;101345.78;7393928;19;20022;-67
2022/07/15 06:07:39;;;;;;;6.00;1.60;;;;;;;13.90;66.42;101342.97;7390202;19;20027;-67
2022/07/15 06:10:10;;;;;;;3.78;1.40;;;;;;;13.97;65.76;101343.66;7392176;19;20018;-67
2022/07/15 06:12:39;;;;;;;6.45;1.30;;;;;;;14.05;65.80;101357.50;7394411;19;20011;-67
2022/07/15 06:15:09;;;;;;;6.63;0.90;;;;;;;14.12;65.06;101351.16;7401369;19;20028;-67
2022/07/15 06:17:38;;;;;;;11.80;1.63;;;;;;;14.19;64.71;101365.03;7398207;19;20036;-67
2022/07/15 06:20:09;;;;;;;8.00;1.00;;;;;;;14.25;64.81;101374.59;7397548;19;20018;-67
2022/07/15 06:22:41;;;;;;;4.68;1.05;;;;;;;14.28;64.16;101363.94;7400055;19;20362;-67
2022/07/15 06:25:10;;;;;;;8.18;1.25;;;;;;;14.26;62.15;101373.69;7400309;19;20018;-67
2022/07/15 06:27:39;;;;;;;6.40;0.90;;;;;;;14.29;62.75;101358.63;7396967;19;20022;-66
2022/07/15 06:30:09;;;;;;;6.97;1.60;;;;;;;14.32;61.84;101370.88;7397582;19;20021;-66
2022/07/15 06:32:38;;;;;;;9.93;1.67;;;;;;;14.35;61.62;101376.06;7396938;19;20019;-68
2022/07/15 06:35:07;;;;;;;6.80;0.95;;;;;;;14.40;60.48;101368.88;7400505;19;20465;-67
2022/07/15 06:37:36;;;;;;;6.72;0.95;;;;;;;14.48;60.41;101380.09;7396435;19;20503;-67
2022/07/15 06:40:09;;;;;;;4.57;1.52;;;;;;;14.55;60.67;101369.38;7397064;19;20477;-67
2022/07/15 06:42:38;;;;;;;4.18;1.02;;;;;;;14.60;59.80;101370.97;7400371;19;20014;-67
2022/07/15 06:45:07;;;;;;;6.75;1.00;;;;;;;14.64;59.62;101372.63;7397317;19;20027;-67
2022/07/15 06:47:36;;;;;;;3.92;1.15;;;;;;;14.70;59.90;101373.34;7399197;19;20035;-68
2022/07/15 06:50:05;;;;;;;5.05;0.85;;;;;;;14.76;59.61;101381.09;7396727;19;20010;-67
2022/07/15 06:52:34;;;;;;;4.55;1.27;;;;;;;14.83;58.19;101386.16;7399430;19;20350;-67
2022/07/15 06:55:02;;;;;;;3.83;0.75;;;;;;;14.88;58.51;101370.19;7399631;19;20028;-66
2022/07/15 06:57:33;;;;;;;5.18;1.27;;;;;;;14.94;58.16;101369.16;7397050;19;20039;-67
2022/07/15 07:00:04;;;;;;;5.07;0.85;;;;;;;14.99;57.98;101356.66;7397200;19;20031;-66
2022/07/15 07:02:33;;;;;;;8.98;1.02;;;;;;;15.15;57.92;101373.78;7399233;19;20028;-67
2022/07/15 07:05:02;;;;;;;3.08;1.05;;;;;;;15.25;57.04;101370.84;7398839;19;20035;-67
2022/07/15 07:07:30;;;;;;;3.22;0.70;;;;;;;15.33;56.29;101371.47;7396635;19;20014;-67
2022/07/15 07:09:59;;;;;;;6.45;1.00;;;;;;;15.40;55.83;101382.72;7397933;19;20022;-67
2022/07/15 07:12:27;;;;;;;6.40;1.05;;;;;;;15.42;55.57;101383.53;7397261;19;20031;-67
2022/07/15 07:15:00;;;;;;;11.63;1.27;;;;;;;15.45;55.03;101380.78;7395996;19;20083;-67
2022/07/15 07:17:29;;;;;;;3.67;0.90;;;;;;;15.49;55.69;101387.69;7397130;19;20018;-67
2022/07/15 07:19:58;;;;;;;4.82;1.05;;;;;;;15.53;55.83;101377.88;7395436;19;20457;-68
2022/07/15 07:22:27;;;;;;;4.65;0.75;;;;;;;15.52;55.11;101376.16;7398182;19;20029;-68
2022/07/15 07:24:55;;;;;;;4.97;1.33;;;;;;;15.51;55.65;101390.31;7397382;19;20418;-68
2022/07/15 07:27:24;;;;;;;3.22;0.90;;;;;;;15.52;55.95;101377.03;7396488;19;20014;-67
2022/07/15 07:29:52;;;;;;;4.18;0.80;;;;;;;15.55;55.32;101387.50;7397413;19;20095;-69
2022/07/15 07:32:23;;;;;;;5.38;0.80;;;;;;;15.60;55.74;101380.28;7395947;19;20026;-68
2022/07/15 07:34:52;;;;;;;3.75;1.05;;;;;;;15.62;55.76;101385.53;7397449;19;20027;-68
2022/07/15 07:37:20;;;;;;;7.43;0.73;;;;;;;15.64;55.62;101375.75;7396839;19;20015;-68
2022/07/15 07:39:49;;;;;;;3.13;1.00;;;;;;;15.72;54.72;101376.38;7396156;19;20022;-68
2022/07/15 07:42:17;;;;;;;2.00;0.47;;;;;;;15.75;54.56;101392.16;7397511;19;20447;-68
2022/07/15 07:44:46;;;;;;;2.97;0.63;;;;;;;15.79;54.10;101369.94;7397643;19;20077;-69
2022/07/15 07:47:14;;;;;;;4.53;0.95;;;;;;;15.84;53.85;101379.56;7395541;19;20376;-68
2022/07/15 07:49:46;;;;;;;4.72;0.60;;;;;;;15.83;53.08;101378.69;7396643;19;20014;-68
2022/07/15 07:52:15;;;;;;;6.65;0.77;;;;;;;15.82;53.56;101376.09;7398085;19;20015;-68
2022/07/15 07:54:44;;;;;;;3.80;0.70;;;;;;;15.82;53.69;101384.03;7395271;19;20019;-68
2022/07/15 07:57:12;;;;;;;5.18;0.88;;;;;;;15.84;53.70;101380.44;7395013;19;20021;-68
2022/07/15 07:59:40;;;;;;;4.90;1.02;;;;;;;15.93;54.11;101382.75;7394779;19;20031;-68
2022/07/15 08:02:09;;;;;;;3.38;0.85;;;;;;;16.06;54.09;101382.34;7394632;19;20386;-68
2022/07/15 08:04:40;;;;;;;1.88;0.60;;;;;;;16.14;53.77;101380.31;7395414;19;20082;-68
2022/07/15 08:07:11;;;;;;;4.38;1.33;;;;;;;16.16;52.70;101383.75;7396656;19;20368;-68
2022/07/15 08:09:40;;;;;;;10.00;1.23;;;;;;;16.24;52.78;101367.63;7395342;19;20031;-68
2022/07/15 08:12:21;;;;;;;3.80;0.98;;;;;;;16.33;50.78;101380.50;7394734;19;20356;-68
2022/07/15 08:14:51;;;;;;;3.17;0.70;;;;;;;16.45;51.50;101371.25;7394458;19;20552;-68
2022/07/15 08:17:19;;;;;;;5.32;0.90;;;;;;;16.52;50.00;101386.00;7395562;19;20536;-68
2022/07/15 08:19:47;;;;;;;4.40;0.70;;;;;;;16.59;50.37;101384.00;7394225;19;20481;-67
2022/07/15 08:22:19;;;;;;;3.88;0.77;;;;;;;16.60;49.09;101383.06;7394876;19;20078;-68
2022/07/15 08:24:49;;;;;;;2.65;0.70;;;;;;;16.57;50.43;101372.59;7396311;19;20074;-68
2022/07/15 08:27:17;;;;;;;5.68;0.95;;;;;;;16.56;50.53;101377.00;7393892;19;20511;-68
2022/07/15 08:29:46;;;;;;;2.85;0.82;;;;;;;16.60;50.95;101385.72;7393924;19;20086;-66
2022/07/15 08:32:15;;;;;;;3.42;0.60;;;;;;;16.67;51.09;101381.94;7394035;19;20015;-67
2022/07/15 08:34:43;;;;;;;4.80;1.02;;;;;;;16.71;50.96;101382.69;7393713;19;20035;-68
2022/07/15 08:37:12;;;;;;;4.07;0.43;;;;;;;16.74;49.59;101394.03;7394814;19;20077;-68
2022/07/15 08:39:43;;;;;;;3.25;1.00;;;;;;;16.68;49.00;101396.03;7393901;19;20026;-67
2022/07/15 08:42:11;;;;;;;3.08;0.52;;;;;;;16.66;49.66;101382.84;7396674;19;20078;-67
2022/07/15 08:44:40;;;;;;;3.80;0.82;;;;;;;16.66;48.63;101396.09;7394296;19;20035;-67
2022/07/15 08:47:09;;;;;;;2.70;0.40;;;;;;;16.68;48.58;101386.31;7394694;19;20018;-66
2022/07/15 08:49:39;;;;;;;3.38;0.50;;;;;;;16.74;48.79;101379.91;7394931;19;20018;-67
2022/07/15 08:52:08;;;;;;;1.40;0.60;;;;;;;16.74;48.04;101391.38;7395156;19;20011;-67
2022/07/15 08:54:37;;;;;;;2.13;0.50;;;;;;;16.72;46.99;101381.75;7393011;19;20375;-68
2022/07/15 08:57:08;;;;;;;5.25;0.50;;;;;;;16.65;48.06;101393.50;7394373;19;20103;-67
2022/07/15 08:59:36;;;;;;;2.38;0.50;;;;;;;16.66;48.46;101384.66;7393211;19;20488;-67
2022/07/15 09:02:05;;;;;;;1.98;0.40;;;;;;;16.66;48.26;101393.44;7394698;19;20422;-67
2022/07/15 09:04:33;;;;;;;2.28;0.47;;;;;;;16.70;47.01;101395.06;7395285;19;20373;-67
2022/07/15 09:07:05;;;;;;;4.38;0.60;;;;;;;16.74;47.84;101386.09;7394086;19;20410;-67
2022/07/15 09:09:37;;;;;;;1.45;0.60;;;;;;;16.83;47.50;101389.31;7392988;19;20020;-70
2022/07/15 09:12:09;;;;;;;2.85;0.60;;;;;;;16.91;45.45;101398.72;7393550;19;20489;-68
2022/07/15 09:14:41;;;;;;;1.35;0.30;;;;;;;16.98;45.21;101396.69;7393477;19;20019;-68
2022/07/15 09:17:23;;;;;;;1.98;0.40;;;;;;;16.99;43.54;101395.78;7395140;19;20022;-67
2022/07/15 09:20:00;;;;;;;1.23;0.38;;;;;;;17.05;42.77;101389.38;7393199;19;20093;-66
2022/07/15 09:22:31;;;;;;;1.95;0.40;;;;;;;17.13;43.20;101391.75;7393343;19;20018;-67
2022/07/15 09:25:09;;;;;;;2.05;0.52;;;;;;;17.18;43.20;101382.66;7395047;19;20024;-68
2022/07/15 09:27:43;;;;;;;5.03;0.50;;;;;;;17.23;43.54;101383.34;7394287;19;20488;-67
2022/07/15 09:38:26;;;;;;;2.20;0.40;;;;;;;17.39;43.24;101401.31;7394112;19;20015;-67
2022/07/15 09:40:55;;;;;;;6.20;0.60;;;;;;;17.42;43.11;101396.72;7391576;19;20022;-68
2022/07/15 09:43:26;;;;;;;2.53;0.50;;;;;;;17.47;41.20;101401.00;7391320;19;20485;-67
2022/07/15 09:46:02;;;;;;;1.67;0.47;;;;;;;17.52;41.79;101397.22;7394673;19;20019;-67
2022/07/15 09:48:31;;;;;;;1.48;0.45;;;;;;;17.68;42.53;101389.53;7397840;19;20015;-68
2022/07/15 09:51:02;;;;;;;2.90;0.40;;;;;;;17.78;41.91;101400.63;7397930;19;20019;-69
2022/07/15 09:53:30;;;;;;;2.38;0.57;;;;;;;17.80;40.96;101398.75;7398474;19;20015;-68
2022/07/15 09:55:59;;;;;;;2.67;0.88;;;;;;;17.87;41.91;101394.06;7397811;19;20011;-67
2022/07/15 09:58:31;;;;;;;1.50;0.50;;;;;;;17.95;41.78;101391.97;7399154;19;20422;-67
2022/07/15 10:01:00;;;;;;;5.72;0.80;;;;;;;18.05;42.05;101393.31;7398351;19;20497;-68
2022/07/15 10:03:29;;;;;;;3.45;0.85;;;;;;;18.16;42.29;101394.63;7400654;19;20023;-67
2022/07/15 10:05:59;;;;;;;3.15;0.88;;;;;;;18.29;41.68;101395.84;7400997;19;20122;-68
2022/07/15 10:08:29;;;;;;;3.67;0.77;;;;;;;18.39;41.56;101397.16;7401949;19;20010;-67
2022/07/15 10:10:59;;;;;;;2.60;0.80;;;;;;;18.45;41.44;101384.53;7398703;19;20022;-68
2022/07/15 10:13:42;;;;;;;4.05;0.57;;;;;;;18.47;41.24;101403.91;7398691;19;20019;-68
2022/07/15 10:16:27;;;;;;;2.22;0.60;;;;;;;18.51;41.14;101403.72;7400366;19;20039;-68
2022/07/15 10:19:10;;;;;;;4.07;0.40;;;;;;;18.47;41.16;101395.94;7399351;19;20018;-68
2022/07/15 10:21:46;;;;;;;4.43;0.60;;;;;;;18.37;41.14;101408.78;7398824;19;20493;-67
2022/07/15 10:24:47;;;;;;;2.60;0.77;;;;;;;18.33;41.22;101399.22;7397916;19;20086;-67
2022/07/15 10:27:32;;;;;;;2.70;0.63;;;;;;;18.24;41.10;101396.03;7396045;19;20388;-68
2022/07/15 10:30:09;;;;;;;1.20;0.70;;;;;;;18.30;41.45;101396.69;7397676;19;20426;-67
2022/07/15 10:33:10;;;;;;;4.22;0.80;;;;;;;18.40;41.61;101396.22;7400900;19;20086;-67
2022/07/15 10:35:41;;;;;;;1.48;0.60;;;;;;;18.45;40.87;101395.16;7397205;19;20138;-68
2022/07/15 10:38:27;;;;;;;3.75;0.63;;;;;;;18.48;40.60;101411.81;7397329;19;20018;-68
2022/07/15 10:41:03;;;;;;;3.92;0.43;;;;;;;18.53;41.45;101403.66;7396751;19;20070;-67
2022/07/15 10:43:45;;;;;;;3.95;0.65;;;;;;;18.57;41.28;101410.53;7400304;19;20019;-67
2022/07/15 10:46:32;;;;;;;2.67;0.50;;;;;;;18.58;41.28;101406.97;7399507;19;20039;-67
2022/07/15 10:49:32;;;;;;;3.50;0.88;;;;;;;18.56;41.19;101406.16;7396761;19;20018;-68
2022/07/15 10:52:15;;;;;;;2.58;0.70;;;;;;;18.56;41.32;101404.38;7397406;19;20029;-68
2022/07/15 10:55:03;;;;;;;2.88;0.60;;;;;;;18.60;41.53;101397.09;7396075;19;20484;-68
2022/07/15 10:57:53;;;;;;;2.35;0.40;;;;;;;18.65;41.01;101404.88;7398401;19;20487;-67
2022/07/15 11:00:32;;;;;;;3.58;0.75;;;;;;;18.66;39.96;101417.25;7396815;19;20034;-66
2022/07/15 11:03:09;;;;;;;2.85;0.50;;;;;;;18.48;40.46;101405.66;7398696;19;20035;-67
2022/07/15 11:05:45;;;;;;;2.15;0.60;;;;;;;18.48;41.10;101401.19;7396851;19;20019;-67
2022/07/15 11:08:43;;;;;;;5.82;0.70;;;;;;;18.56;40.69;101399.06;7395660;19;20435;-67
2022/07/15 11:11:42;;;;;;;6.40;0.88;;;;;;;18.66;40.26;101412.78;7395158;19;20022;-67
2022/07/15 11:14:40;;;;;;;5.05;0.65;;;;;;;18.69;40.69;101415.31;7395627;19;20011;-67
2022/07/15 11:17:09;;;;;;;3.85;0.80;;;;;;;18.73;41.03;101405.41;7395445;19;20018;-67
2022/07/15 11:19:40;;;;;;;4.32;0.88;;;;;;;18.73;41.04;101395.63;7394936;19;20513;-67
2022/07/15 11:22:11;;;;;;;2.42;0.50;;;;;;;18.78;41.17;101400.75;7395565;19;20028;-68
2022/07/15 11:24:40;;;;;;;3.80;0.68;;;;;;;18.85;40.96;101394.19;7396674;19;20546;-67
2022/07/15 11:27:09;;;;;;;3.50;0.80;;;;;;;18.86;41.19;101381.78;7396905;19;20488;-67
2022/07/15 11:29:50;;;;;;;4.90;0.50;;;;;;;18.91;40.15;101393.09;7394517;19;20027;-67
2022/07/15 11:32:20;;;;;;;2.22;0.60;;;;;;;19.00;40.43;101382.00;7394500;19;20453;-67
2022/07/15 11:34:54;;;;;;;2.03;0.50;;;;;;;19.10;40.59;101393.09;7397464;19;20041;-67
2022/07/15 11:37:25;;;;;;;;;;;;;;;19.12;39.30;101390.34;7397617;19;20055;-67
2022/07/15 11:40:09;;;;;;;2.90;0.68;;;;;;;19.14;39.61;101383.16;7395417;19;20028;-68
2022/07/15 11:45:34;;;;;;;4.72;1.13;;;;;;;19.03;40.37;101395.19;7396766;19;20018;-68
2022/07/15 11:48:03;;;;;;;2.70;0.77;;;;;;;19.09;40.35;101391.34;7397508;19;20014;-67
2022/07/15 11:50:34;;;;;;;2.97;0.70;;;;;;;19.10;39.79;101390.44;7395457;19;20037;-67
2022/07/15 11:53:02;;;;;;;4.38;0.70;;;;;;;19.19;39.55;101382.00;7394162;19;20517;-67
2022/07/15 11:55:31;;;;;;;2.33;1.13;;;;;;;19.34;39.79;101377.75;7394488;19;20086;-70